sensor_id;sensor_type;location;lat;lon;timestamp;pressure;altitude;pressure_sealevel;temperature;humidity
56292;BME280;54008;53.606;9.462;2022-11-11T00:00:20;102865.75;;;11.10;100.00
56292;BME280;54008;53.606;9.462;2022-11-11T00:02:46;102855.81;;;11.09;100.00
56292;BME280;54008;53.606;9.462;2022-11-11T00:05:13;102852.19;;;11.09;100.00
56292;BME280;54008;53.606;9.462;2022-11-11T00:07:39;102859.03;;;11.13;100.00
56292;BME280;54008;53.606;9.462;2022-11-11T00:10:04;102853.53;;;11.13;100.00
56292;BME280;54008;53.606;9.462;2022-11-11T00:12:30;102866.38;;;11.12;100.00
56292;BME280;54008;53.606;9.462;2022-11-11T00:14:55;102862.78;;;11.12;100.00
56292;BME280;54008;53.606;9.462;2022-11-11T00:17:20;102860.50;;;11.15;100.00
56292;BME280;54008;53.606;9.462;2022-11-11T00:20:05;102856.28;;;11.13;100.00
56292;BME280;54008;53.606;9.462;2022-11-11T00:22:49;102853.53;;;11.13;100.00
56292;BME280;54008;53.606;9.462;2022-11-11T00:25:33;102852.84;;;11.11;100.00
56292;BME280;54008;53.606;9.462;2022-11-11T00:27:58;102851.81;;;11.12;100.00
56292;BME280;54008;53.606;9.462;2022-11-11T00:30:23;102848.03;;;11.13;100.00
56292;BME280;54008;53.606;9.462;2022-11-11T00:32:48;102849.72;;;11.14;100.00
56292;BME280;54008;53.606;9.462;2022-11-11T00:35:14;102844.03;;;11.15;100.00
56292;BME280;54008;53.606;9.462;2022-11-11T00:38:06;102847.63;;;11.16;100.00
56292;BME280;54008;53.606;9.462;2022-11-11T00:40:32;102853.78;;;11.18;100.00
56292;BME280;54008;53.606;9.462;2022-11-11T00:42:57;102856.53;;;11.18;100.00
56292;BME280;54008;53.606;9.462;2022-11-11T00:45:22;102854.44;;;11.20;100.00
56292;BME280;54008;53.606;9.462;2022-11-11T00:47:47;102863.72;;;11.19;100.00
56292;BME280;54008;53.606;9.462;2022-11-11T00:50:31;102863.34;;;11.22;100.00
56292;BME280;54008;53.606;9.462;2022-11-11T00:53:20;102863.34;;;11.22;100.00
56292;BME280;54008;53.606;9.462;2022-11-11T00:55:46;102859.19;;;11.26;100.00
56292;BME280;54008;53.606;9.462;2022-11-11T00:58:12;102858.72;;;11.23;100.00
56292;BME280;54008;53.606;9.462;2022-11-11T01:00:37;102855.97;;;11.23;100.00
56292;BME280;54008;53.606;9.462;2022-11-11T01:03:03;102851.59;;;11.28;100.00
56292;BME280;54008;53.606;9.462;2022-11-11T01:05:28;102853.31;;;11.29;100.00
56292;BME280;54008;53.606;9.462;2022-11-11T01:07:54;102856.44;;;11.26;100.00
56292;BME280;54008;53.606;9.462;2022-11-11T01:10:21;102870.38;;;11.25;100.00
56292;BME280;54008;53.606;9.462;2022-11-11T01:13:27;102875.28;;;11.29;100.00
56292;BME280;54008;53.606;9.462;2022-11-11T01:15:56;102871.69;;;11.29;100.00
56292;BME280;54008;53.606;9.462;2022-11-11T01:18:24;102873.59;;;11.28;100.00
56292;BME280;54008;53.606;9.462;2022-11-11T01:21:03;102864.50;;;11.28;100.00
56292;BME280;54008;53.606;9.462;2022-11-11T01:23:31;102852.16;;;11.24;100.00
56292;BME280;54008;53.606;9.462;2022-11-11T01:26:05;102851.13;;;11.25;100.00
56292;BME280;54008;53.606;9.462;2022-11-11T01:28:31;102868.47;;;11.25;100.00
56292;BME280;54008;53.606;9.462;2022-11-11T01:31:02;102864.19;;;11.23;100.00
56292;BME280;54008;53.606;9.462;2022-11-11T01:33:28;102872.91;;;11.26;100.00
56292;BME280;54008;53.606;9.462;2022-11-11T01:35:53;102878.78;;;11.23;100.00
56292;BME280;54008;53.606;9.462;2022-11-11T01:38:18;102881.16;;;11.26;100.00
56292;BME280;54008;53.606;9.462;2022-11-11T01:40:45;102869.31;;;11.26;100.00
56292;BME280;54008;53.606;9.462;2022-11-11T01:45:59;102863.34;;;11.22;100.00
56292;BME280;54008;53.606;9.462;2022-11-11T01:48:34;102859.75;;;11.22;100.00
56292;BME280;54008;53.606;9.462;2022-11-11T01:51:40;102857.94;;;11.29;100.00
56292;BME280;54008;53.606;9.462;2022-11-11T01:54:11;102855.78;;;11.24;100.00
56292;BME280;54008;53.606;9.462;2022-11-11T01:56:40;102849.41;;;11.24;100.00
56292;BME280;54008;53.606;9.462;2022-11-11T01:59:10;102851.97;;;11.25;100.00
56292;BME280;54008;53.606;9.462;2022-11-11T02:01:37;102853.03;;;11.24;100.00
56292;BME280;54008;53.606;9.462;2022-11-11T02:04:03;102839.69;;;11.21;100.00
56292;BME280;54008;53.606;9.462;2022-11-11T02:06:50;102835.03;;;11.22;100.00
56292;BME280;54008;53.606;9.462;2022-11-11T02:09:17;102831.44;;;11.21;100.00
56292;BME280;54008;53.606;9.462;2022-11-11T02:11:44;102843.44;;;11.20;100.00
56292;BME280;54008;53.606;9.462;2022-11-11T02:14:28;102823.56;;;11.18;100.00
56292;BME280;54008;53.606;9.462;2022-11-11T02:17:06;102817.03;;;11.19;100.00
56292;BME280;54008;53.606;9.462;2022-11-11T02:19:44;102830.28;;;11.15;100.00
56292;BME280;54008;53.606;9.462;2022-11-11T02:22:15;102832.88;;;11.17;100.00
56292;BME280;54008;53.606;9.462;2022-11-11T02:24:42;102844.22;;;11.14;100.00
56292;BME280;54008;53.606;9.462;2022-11-11T02:27:10;102847.25;;;11.19;100.00
56292;BME280;54008;53.606;9.462;2022-11-11T02:29:37;102838.06;;;11.12;100.00
56292;BME280;54008;53.606;9.462;2022-11-11T02:32:03;102831.94;;;11.10;100.00
56292;BME280;54008;53.606;9.462;2022-11-11T02:34:30;102840.53;;;11.07;100.00
56292;BME280;54008;53.606;9.462;2022-11-11T02:36:55;102835.06;;;11.07;100.00
56292;BME280;54008;53.606;9.462;2022-11-11T02:39:20;102838.19;;;11.04;100.00
56292;BME280;54008;53.606;9.462;2022-11-11T02:41:47;102843.41;;;10.99;100.00
56292;BME280;54008;53.606;9.462;2022-11-11T02:44:23;102835.53;;;10.96;100.00
56292;BME280;54008;53.606;9.462;2022-11-11T02:46:49;102834.88;;;10.93;100.00
56292;BME280;54008;53.606;9.462;2022-11-11T02:49:14;102841.63;;;10.91;100.00
56292;BME280;54008;53.606;9.462;2022-11-11T02:51:39;102851.91;;;10.89;100.00
56292;BME280;54008;53.606;9.462;2022-11-11T02:54:05;102851.91;;;10.89;100.00
56292;BME280;54008;53.606;9.462;2022-11-11T02:56:30;102857.63;;;10.87;100.00
56292;BME280;54008;53.606;9.462;2022-11-11T02:59:14;102864.44;;;10.91;100.00
56292;BME280;54008;53.606;9.462;2022-11-11T03:01:39;102863.84;;;10.81;100.00
56292;BME280;54008;53.606;9.462;2022-11-11T03:04:10;102862.81;;;10.82;100.00
56292;BME280;54008;53.606;9.462;2022-11-11T03:06:36;102866.59;;;10.81;100.00
56292;BME280;54008;53.606;9.462;2022-11-11T03:09:01;102857.72;;;10.79;100.00
56292;BME280;54008;53.606;9.462;2022-11-11T03:11:26;102860.25;;;10.81;100.00
56292;BME280;54008;53.606;9.462;2022-11-11T03:13:56;102861.94;;;10.82;100.00
56292;BME280;54008;53.606;9.462;2022-11-11T03:16:53;102854.09;;;10.79;100.00
56292;BME280;54008;53.606;9.462;2022-11-11T03:19:37;102841.41;;;10.78;100.00
56292;BME280;54008;53.606;9.462;2022-11-11T03:22:02;102843.69;;;10.74;100.00
56292;BME280;54008;53.606;9.462;2022-11-11T03:24:29;102850.22;;;10.73;100.00
56292;BME280;54008;53.606;9.462;2022-11-11T03:27:15;102841.97;;;10.73;100.00
56292;BME280;54008;53.606;9.462;2022-11-11T03:29:40;102847.84;;;10.70;100.00
56292;BME280;54008;53.606;9.462;2022-11-11T03:32:07;102848.69;;;10.71;100.00
56292;BME280;54008;53.606;9.462;2022-11-11T03:34:32;102850.78;;;10.68;100.00
56292;BME280;54008;53.606;9.462;2022-11-11T03:36:58;102859.41;;;10.65;100.00
56292;BME280;54008;53.606;9.462;2022-11-11T03:39:41;102858.34;;;10.66;100.00
56292;BME280;54008;53.606;9.462;2022-11-11T03:42:07;102854.38;;;10.69;100.00
56292;BME280;54008;53.606;9.462;2022-11-11T03:44:32;102850.47;;;10.63;100.00
56292;BME280;54008;53.606;9.462;2022-11-11T03:46:57;102850.31;;;10.65;100.00
56292;BME280;54008;53.606;9.462;2022-11-11T03:49:23;102855.13;;;10.63;100.00
56292;BME280;54008;53.606;9.462;2022-11-11T03:51:48;102859.97;;;10.61;100.00
56292;BME280;54008;53.606;9.462;2022-11-11T03:54:13;102855.34;;;10.61;100.00
56292;BME280;54008;53.606;9.462;2022-11-11T03:56:38;102864.97;;;10.57;100.00
56292;BME280;54008;53.606;9.462;2022-11-11T03:59:04;102861.56;;;10.55;100.00
56292;BME280;54008;53.606;9.462;2022-11-11T04:01:29;102859.19;;;10.52;100.00
56292;BME280;54008;53.606;9.462;2022-11-11T04:04:13;102857.00;;;10.48;100.00
56292;BME280;54008;53.606;9.462;2022-11-11T04:06:57;102854.47;;;10.46;100.00
56292;BME280;54008;53.606;9.462;2022-11-11T04:09:41;102857.84;;;10.48;100.00
56292;BME280;54008;53.606;9.462;2022-11-11T04:12:25;102855.59;;;10.52;100.00
56292;BME280;54008;53.606;9.462;2022-11-11T04:14:50;102854.94;;;10.50;100.00
56292;BME280;54008;53.606;9.462;2022-11-11T04:17:34;102852.72;;;10.45;100.00
56292;BME280;54008;53.606;9.462;2022-11-11T04:20:00;102861.84;;;10.46;100.00
56292;BME280;54008;53.606;9.462;2022-11-11T04:22:44;102857.22;;;10.46;100.00
56292;BME280;54008;53.606;9.462;2022-11-11T04:25:09;102868.34;;;10.44;100.00
56292;BME280;54008;53.606;9.462;2022-11-11T04:27:56;102880.19;;;10.45;100.00
56292;BME280;54008;53.606;9.462;2022-11-11T04:30:40;102873.19;;;10.42;100.00
56292;BME280;54008;53.606;9.462;2022-11-11T04:33:05;102873.56;;;10.39;100.00
56292;BME280;54008;53.606;9.462;2022-11-11T04:35:31;102880.09;;;10.38;100.00
56292;BME280;54008;53.606;9.462;2022-11-11T04:37:56;102879.69;;;10.41;100.00
56292;BME280;54008;53.606;9.462;2022-11-11T04:40:41;102881.41;;;10.42;100.00
56292;BME280;54008;53.606;9.462;2022-11-11T04:43:25;102880.75;;;10.40;100.00
56292;BME280;54008;53.606;9.462;2022-11-11T04:45:50;102883.84;;;10.37;100.00
56292;BME280;54008;53.606;9.462;2022-11-11T04:48:15;102879.41;;;10.36;100.00
56292;BME280;54008;53.606;9.462;2022-11-11T04:50:43;102874.97;;;10.35;100.00
56292;BME280;54008;53.606;9.462;2022-11-11T04:53:12;102875.34;;;10.32;100.00
56292;BME280;54008;53.606;9.462;2022-11-11T04:55:38;102865.00;;;10.34;100.00
56292;BME280;54008;53.606;9.462;2022-11-11T04:58:24;102869.91;;;10.24;100.00
56292;BME280;54008;53.606;9.462;2022-11-11T05:00:50;102868.53;;;10.28;100.00
56292;BME280;54008;53.606;9.462;2022-11-11T05:03:17;102870.25;;;10.21;100.00
56292;BME280;54008;53.606;9.462;2022-11-11T05:08:34;102866.84;;;10.19;100.00
56292;BME280;54008;53.606;9.462;2022-11-11T05:11:19;102860.00;;;10.15;100.00
56292;BME280;54008;53.606;9.462;2022-11-11T05:13:45;102848.06;;;10.08;100.00
56292;BME280;54008;53.606;9.462;2022-11-11T05:16:31;102852.22;;;10.04;100.00
56292;BME280;54008;53.606;9.462;2022-11-11T05:19:17;102842.00;;;9.98;100.00
56292;BME280;54008;53.606;9.462;2022-11-11T05:24:42;102847.00;;;9.94;100.00
56292;BME280;54008;53.606;9.462;2022-11-11T05:27:27;102839.31;;;9.89;100.00
56292;BME280;54008;53.606;9.462;2022-11-11T05:29:52;102852.00;;;9.90;100.00
56292;BME280;54008;53.606;9.462;2022-11-11T05:32:19;102859.53;;;9.88;100.00
56292;BME280;54008;53.606;9.462;2022-11-11T05:34:45;102859.75;;;9.87;100.00
56292;BME280;54008;53.606;9.462;2022-11-11T05:37:11;102866.72;;;9.89;100.00
56292;BME280;54008;53.606;9.462;2022-11-11T05:39:36;102861.63;;;9.86;100.00
56292;BME280;54008;53.606;9.462;2022-11-11T05:42:02;102857.00;;;9.87;100.00
56292;BME280;54008;53.606;9.462;2022-11-11T05:44:27;102861.16;;;9.83;100.00
56292;BME280;54008;53.606;9.462;2022-11-11T05:46:53;102858.56;;;9.81;100.00
56292;BME280;54008;53.606;9.462;2022-11-11T05:49:18;102862.72;;;9.77;100.00
56292;BME280;54008;53.606;9.462;2022-11-11T05:51:44;102855.53;;;9.76;100.00
56292;BME280;54008;53.606;9.462;2022-11-11T05:54:10;102856.09;;;9.71;100.00
56292;BME280;54008;53.606;9.462;2022-11-11T05:56:35;102857.59;;;9.74;100.00
56292;BME280;54008;53.606;9.462;2022-11-11T05:59:01;102859.47;;;9.74;100.00
56292;BME280;54008;53.606;9.462;2022-11-11T06:01:26;102867.72;;;9.74;100.00
56292;BME280;54008;53.606;9.462;2022-11-11T06:03:51;102867.56;;;9.67;100.00
56292;BME280;54008;53.606;9.462;2022-11-11T06:06:17;102865.16;;;9.72;100.00
56292;BME280;54008;53.606;9.462;2022-11-11T06:08:42;102862.09;;;9.67;100.00
56292;BME280;54008;53.606;9.462;2022-11-11T06:11:07;102869.09;;;9.69;100.00
56292;BME280;54008;53.606;9.462;2022-11-11T06:13:32;102861.06;;;9.68;100.00
56292;BME280;54008;53.606;9.462;2022-11-11T06:15:59;102860.03;;;9.69;100.00
56292;BME280;54008;53.606;9.462;2022-11-11T06:18:24;102877.19;;;9.63;100.00
56292;BME280;54008;53.606;9.462;2022-11-11T06:20:54;102875.31;;;9.63;100.00
56292;BME280;54008;53.606;9.462;2022-11-11T06:23:20;102877.59;;;9.60;100.00
56292;BME280;54008;53.606;9.462;2022-11-11T06:25:45;102884.91;;;9.59;100.00
56292;BME280;54008;53.606;9.462;2022-11-11T06:28:29;102887.66;;;9.59;100.00
56292;BME280;54008;53.606;9.462;2022-11-11T06:30:54;102896.06;;;9.58;100.00
56292;BME280;54008;53.606;9.462;2022-11-11T06:33:20;102893.69;;;9.55;100.00
56292;BME280;54008;53.606;9.462;2022-11-11T06:35:46;102898.13;;;9.56;100.00
56292;BME280;54008;53.606;9.462;2022-11-11T06:38:12;102903.09;;;9.60;100.00
56292;BME280;54008;53.606;9.462;2022-11-11T06:40:37;102912.81;;;9.63;100.00
56292;BME280;54008;53.606;9.462;2022-11-11T06:43:03;102917.09;;;9.65;100.00
56292;BME280;54008;53.606;9.462;2022-11-11T06:45:29;102918.00;;;9.58;100.00
56292;BME280;54008;53.606;9.462;2022-11-11T06:47:55;102928.59;;;9.61;100.00
56292;BME280;54008;53.606;9.462;2022-11-11T06:50:20;102928.25;;;9.64;100.00
56292;BME280;54008;53.606;9.462;2022-11-11T06:52:46;102932.00;;;9.63;100.00
56292;BME280;54008;53.606;9.462;2022-11-11T06:55:11;102939.22;;;9.64;100.00
56292;BME280;54008;53.606;9.462;2022-11-11T06:57:37;102933.03;;;9.62;100.00
56292;BME280;54008;53.606;9.462;2022-11-11T07:00:06;102930.31;;;9.62;100.00
56292;BME280;54008;53.606;9.462;2022-11-11T07:02:32;102934.59;;;9.64;100.00
56292;BME280;54008;53.606;9.462;2022-11-11T07:04:57;102943.81;;;9.63;100.00
56292;BME280;54008;53.606;9.462;2022-11-11T07:07:23;102941.47;;;9.60;100.00
56292;BME280;54008;53.606;9.462;2022-11-11T07:09:48;102941.97;;;9.64;100.00
56292;BME280;54008;53.606;9.462;2022-11-11T07:12:14;102947.59;;;9.62;100.00
56292;BME280;54008;53.606;9.462;2022-11-11T07:14:39;102943.47;;;9.66;100.00
56292;BME280;54008;53.606;9.462;2022-11-11T07:17:04;102937.97;;;9.66;100.00
56292;BME280;54008;53.606;9.462;2022-11-11T07:19:30;102937.13;;;9.66;100.00
56292;BME280;54008;53.606;9.462;2022-11-11T07:21:55;102938.84;;;9.67;100.00
56292;BME280;54008;53.606;9.462;2022-11-11T07:24:20;102939.72;;;9.67;100.00
56292;BME280;54008;53.606;9.462;2022-11-11T07:26:46;102945.00;;;9.69;100.00
56292;BME280;54008;53.606;9.462;2022-11-11T07:29:11;102939.22;;;9.64;100.00
56292;BME280;54008;53.606;9.462;2022-11-11T07:31:38;102941.41;;;9.68;100.00
56292;BME280;54008;53.606;9.462;2022-11-11T07:34:03;102945.00;;;9.69;100.00
56292;BME280;54008;53.606;9.462;2022-11-11T07:36:29;102943.97;;;9.70;100.00
56292;BME280;54008;53.606;9.462;2022-11-11T07:38:54;102947.38;;;9.72;100.00
56292;BME280;54008;53.606;9.462;2022-11-11T07:41:19;102945.69;;;9.71;100.00
56292;BME280;54008;53.606;9.462;2022-11-11T07:43:45;102943.09;;;9.69;100.00
56292;BME280;54008;53.606;9.462;2022-11-11T07:46:10;102951.63;;;9.75;100.00
56292;BME280;54008;53.606;9.462;2022-11-11T07:48:35;102954.72;;;9.80;100.00
56292;BME280;54008;53.606;9.462;2022-11-11T07:51:00;102954.56;;;9.73;100.00
56292;BME280;54008;53.606;9.462;2022-11-11T07:53:26;102955.91;;;9.77;100.00
56292;BME280;54008;53.606;9.462;2022-11-11T07:55:53;102955.06;;;9.77;100.00
56292;BME280;54008;53.606;9.462;2022-11-11T07:58:18;102957.63;;;9.78;100.00
56292;BME280;54008;53.606;9.462;2022-11-11T08:00:43;102959.50;;;9.78;100.00
56292;BME280;54008;53.606;9.462;2022-11-11T08:03:09;102962.75;;;9.81;100.00
56292;BME280;54008;53.606;9.462;2022-11-11T08:05:34;102958.50;;;9.79;100.00
56292;BME280;54008;53.606;9.462;2022-11-11T08:08:04;102969.28;;;9.80;100.00
56292;BME280;54008;53.606;9.462;2022-11-11T08:10:30;102976.50;;;9.73;100.00
56292;BME280;54008;53.606;9.462;2022-11-11T08:12:55;102968.97;;;9.75;100.00
56292;BME280;54008;53.606;9.462;2022-11-11T08:15:39;102973.06;;;9.79;100.00
56292;BME280;54008;53.606;9.462;2022-11-11T08:18:04;102974.75;;;9.80;100.00
56292;BME280;54008;53.606;9.462;2022-11-11T08:20:29;102977.13;;;9.83;100.00
56292;BME280;54008;53.606;9.462;2022-11-11T08:22:55;102972.00;;;9.80;100.00
56292;BME280;54008;53.606;9.462;2022-11-11T08:25:22;102982.13;;;9.80;100.00
56292;BME280;54008;53.606;9.462;2022-11-11T08:27:48;102972.50;;;9.84;100.00
56292;BME280;54008;53.606;9.462;2022-11-11T08:30:13;102980.19;;;9.88;100.00
56292;BME280;54008;53.606;9.462;2022-11-11T08:32:39;102978.47;;;9.87;100.00
56292;BME280;54008;53.606;9.462;2022-11-11T08:35:04;102979.69;;;9.85;100.00
56292;BME280;54008;53.606;9.462;2022-11-11T08:37:30;102993.88;;;9.88;100.00
56292;BME280;54008;53.606;9.462;2022-11-11T08:39:55;102984.63;;;9.89;100.00
56292;BME280;54008;53.606;9.462;2022-11-11T08:42:21;102992.00;;;9.89;100.00
56292;BME280;54008;53.606;9.462;2022-11-11T08:44:47;102994.56;;;9.90;100.00
56292;BME280;54008;53.606;9.462;2022-11-11T08:47:12;102987.00;;;9.92;100.00
56292;BME280;54008;53.606;9.462;2022-11-11T08:49:37;102983.91;;;9.95;100.00
56292;BME280;54008;53.606;9.462;2022-11-11T08:52:03;102984.97;;;9.94;100.00
56292;BME280;54008;53.606;9.462;2022-11-11T08:54:28;102981.16;;;9.95;100.00
56292;BME280;54008;53.606;9.462;2022-11-11T08:56:54;102988.00;;;10.00;100.00
56292;BME280;54008;53.606;9.462;2022-11-11T08:59:20;102979.22;;;10.04;100.00
56292;BME280;54008;53.606;9.462;2022-11-11T09:01:45;102987.66;;;10.03;100.00
56292;BME280;54008;53.606;9.462;2022-11-11T09:04:10;102985.09;;;10.01;100.00
56292;BME280;54008;53.606;9.462;2022-11-11T09:06:35;102985.94;;;10.02;100.00
56292;BME280;54008;53.606;9.462;2022-11-11T09:09:01;102990.69;;;10.08;100.00
56292;BME280;54008;53.606;9.462;2022-11-11T09:11:26;102985.59;;;10.05;100.00
56292;BME280;54008;53.606;9.462;2022-11-11T09:13:52;102993.44;;;10.08;100.00
56292;BME280;54008;53.606;9.462;2022-11-11T09:16:17;102982.78;;;10.13;100.00
56292;BME280;54008;53.606;9.462;2022-11-11T09:18:43;102978.94;;;10.22;100.00
56292;BME280;54008;53.606;9.462;2022-11-11T09:21:08;102985.78;;;10.26;100.00
56292;BME280;54008;53.606;9.462;2022-11-11T09:23:33;102987.53;;;10.27;100.00
56292;BME280;54008;53.606;9.462;2022-11-11T09:26:00;102987.47;;;10.35;100.00
56292;BME280;54008;53.606;9.462;2022-11-11T09:28:28;102995.00;;;10.33;100.00
56292;BME280;54008;53.606;9.462;2022-11-11T09:30:53;103001.00;;;10.37;100.00
56292;BME280;54008;53.606;9.462;2022-11-11T09:33:19;103001.84;;;10.37;100.00
56292;BME280;54008;53.606;9.462;2022-11-11T09:35:44;103008.38;;;10.36;100.00
56292;BME280;54008;53.606;9.462;2022-11-11T09:38:09;103009.06;;;10.38;100.00
56292;BME280;54008;53.606;9.462;2022-11-11T09:54:40;103043.31;;;10.65;100.00
56292;BME280;54008;53.606;9.462;2022-11-11T09:57:20;103049.47;;;10.67;100.00
56292;BME280;54008;53.606;9.462;2022-11-11T09:59:53;103055.41;;;10.79;100.00
56292;BME280;54008;53.606;9.462;2022-11-11T10:02:34;103059.03;;;10.95;100.00
56292;BME280;54008;53.606;9.462;2022-11-11T10:05:11;103067.56;;;11.00;100.00
56292;BME280;54008;53.606;9.462;2022-11-11T10:07:57;103076.69;;;11.15;100.00
56292;BME280;54008;53.606;9.462;2022-11-11T10:10:32;103096.22;;;11.20;100.00
56292;BME280;54008;53.606;9.462;2022-11-11T10:13:02;103096.91;;;11.22;100.00
56292;BME280;54008;53.606;9.462;2022-11-11T10:15:34;103108.56;;;11.24;100.00
56292;BME280;54008;53.606;9.462;2022-11-11T10:20:54;103118.78;;;11.30;100.00
56292;BME280;54008;53.606;9.462;2022-11-11T10:23:24;103131.59;;;11.38;100.00
56292;BME280;54008;53.606;9.462;2022-11-11T10:25:55;103150.84;;;11.38;100.00
56292;BME280;54008;53.606;9.462;2022-11-11T10:28:24;103151.41;;;11.33;100.00
56292;BME280;54008;53.606;9.462;2022-11-11T10:30:51;103147.72;;;11.41;100.00
56292;BME280;54008;53.606;9.462;2022-11-11T10:34:08;103148.78;;;11.40;100.00
56292;BME280;54008;53.606;9.462;2022-11-11T10:36:11;103158.44;;;11.36;100.00
56292;BME280;54008;53.606;9.462;2022-11-11T10:38:50;103162.31;;;11.41;100.00
56292;BME280;54008;53.606;9.462;2022-11-11T10:41:47;103165.91;;;11.42;100.00
56292;BME280;54008;53.606;9.462;2022-11-11T10:44:23;103159.31;;;11.51;100.00
56292;BME280;54008;53.606;9.462;2022-11-11T10:46:57;103166.03;;;11.49;100.00
56292;BME280;54008;53.606;9.462;2022-11-11T10:49:30;103170.19;;;11.45;100.00
56292;BME280;54008;53.606;9.462;2022-11-11T10:52:09;103160.16;;;11.52;100.00
56292;BME280;54008;53.606;9.462;2022-11-11T10:54:46;103167.75;;;11.50;100.00
56292;BME280;54008;53.606;9.462;2022-11-11T10:57:20;103171.41;;;11.42;100.00
56292;BME280;54008;53.606;9.462;2022-11-11T10:59:56;103165.28;;;11.40;100.00
56292;BME280;54008;53.606;9.462;2022-11-11T11:02:30;103174.72;;;11.37;100.00
56292;BME280;54008;53.606;9.462;2022-11-11T11:05:10;103170.94;;;11.38;100.00
56292;BME280;54008;53.606;9.462;2022-11-11T11:07:41;103171.81;;;11.39;100.00
56292;BME280;54008;53.606;9.462;2022-11-11T11:10:14;103166.00;;;11.34;100.00
56292;BME280;54008;53.606;9.462;2022-11-11T11:15:23;103168.50;;;11.44;100.00
56292;BME280;54008;53.606;9.462;2022-11-11T11:17:58;103166.31;;;11.54;100.00
56292;BME280;54008;53.606;9.462;2022-11-11T11:20:24;103165.66;;;11.52;100.00
56292;BME280;54008;53.606;9.462;2022-11-11T11:22:54;103169.06;;;11.54;100.00
56292;BME280;54008;53.606;9.462;2022-11-11T11:25:22;103165.84;;;11.35;100.00
56292;BME280;54008;53.606;9.462;2022-11-11T11:27:50;103169.53;;;11.43;100.00
56292;BME280;54008;53.606;9.462;2022-11-11T11:30:17;103174.38;;;11.40;100.00
56292;BME280;54008;53.606;9.462;2022-11-11T11:33:10;103170.66;;;11.33;100.00
56292;BME280;54008;53.606;9.462;2022-11-11T11:35:42;103178.16;;;11.39;100.00
56292;BME280;54008;53.606;9.462;2022-11-11T11:38:12;103168.75;;;11.34;100.00
56292;BME280;54008;53.606;9.462;2022-11-11T11:40:52;103173.69;;;11.38;100.00
56292;BME280;54008;53.606;9.462;2022-11-11T11:45:57;103182.31;;;11.35;100.00
56292;BME280;54008;53.606;9.462;2022-11-11T11:53:48;103169.22;;;11.37;100.00
56292;BME280;54008;53.606;9.462;2022-11-11T11:56:39;103172.06;;;11.29;100.00
56292;BME280;54008;53.606;9.462;2022-11-11T11:59:31;103166.56;;;11.29;100.00
56292;BME280;54008;53.606;9.462;2022-11-11T12:10:22;103169.03;;;11.24;100.00
56292;BME280;54008;53.606;9.462;2022-11-11T12:15:33;103168.47;;;11.29;100.00
56292;BME280;54008;53.606;9.462;2022-11-11T12:20:53;103170.03;;;11.23;100.00
56292;BME280;54008;53.606;9.462;2022-11-11T12:43:10;103177.63;;;11.21;100.00
56292;BME280;54008;53.606;9.462;2022-11-11T12:57:32;103188.28;;;11.16;100.00
56292;BME280;54008;53.606;9.462;2022-11-11T13:11:13;103180.38;;;10.98;100.00
56292;BME280;54008;53.606;9.462;2022-11-11T13:14:37;103185.00;;;10.98;100.00
56292;BME280;54008;53.606;9.462;2022-11-11T13:17:13;103187.94;;;10.96;100.00
56292;BME280;54008;53.606;9.462;2022-11-11T13:19:45;103196.72;;;10.91;100.00
56292;BME280;54008;53.606;9.462;2022-11-11T13:22:28;103194.75;;;10.77;100.00
56292;BME280;54008;53.606;9.462;2022-11-11T13:24:55;103191.66;;;10.80;100.00
56292;BME280;54008;53.606;9.462;2022-11-11T13:27:42;103184.97;;;10.75;100.00
56292;BME280;54008;53.606;9.462;2022-11-11T13:33:02;103189.94;;;10.79;100.00
56292;BME280;54008;53.606;9.462;2022-11-11T13:35:42;103186.69;;;10.76;100.00
56292;BME280;54008;53.606;9.462;2022-11-11T13:38:29;103186.56;;;10.69;100.00
56292;BME280;54008;53.606;9.462;2022-11-11T13:40:58;103184.81;;;10.76;100.00
56292;BME280;54008;53.606;9.462;2022-11-11T13:43:29;103189.25;;;10.77;100.00
56292;BME280;54008;53.606;9.462;2022-11-11T13:45:57;103179.97;;;10.78;100.00
56292;BME280;54008;53.606;9.462;2022-11-11T13:48:46;103183.91;;;10.84;100.00
56292;BME280;54008;53.606;9.462;2022-11-11T13:51:25;103187.72;;;10.75;100.00
56292;BME280;54008;53.606;9.462;2022-11-11T13:53:51;103187.63;;;10.91;100.00
56292;BME280;54008;53.606;9.462;2022-11-11T13:56:27;103189.88;;;10.87;100.00
56292;BME280;54008;53.606;9.462;2022-11-11T13:58:54;103187.44;;;10.92;100.00
56292;BME280;54008;53.606;9.462;2022-11-11T14:01:20;103185.53;;;10.93;100.00
56292;BME280;54008;53.606;9.462;2022-11-11T14:13:49;103205.72;;;10.77;100.00
56292;BME280;54008;53.606;9.462;2022-11-11T14:19:12;103194.03;;;10.83;100.00
56292;BME280;54008;53.606;9.462;2022-11-11T14:22:02;103198.19;;;10.79;100.00
56292;BME280;54008;53.606;9.462;2022-11-11T14:24:37;103195.44;;;10.79;100.00
56292;BME280;54008;53.606;9.462;2022-11-11T14:27:15;103192.50;;;10.81;100.00
56292;BME280;54008;53.606;9.462;2022-11-11T14:29:53;103195.06;;;10.82;100.00
56292;BME280;54008;53.606;9.462;2022-11-11T14:32:37;103196.09;;;10.81;100.00
56292;BME280;54008;53.606;9.462;2022-11-11T14:35:18;103187.66;;;10.83;100.00
56292;BME280;54008;53.606;9.462;2022-11-11T14:40:25;103188.72;;;10.82;100.00
56292;BME280;54008;53.606;9.462;2022-11-11T14:42:51;103197.78;;;10.82;100.00
56292;BME280;54008;53.606;9.462;2022-11-11T14:47:48;103202.78;;;10.79;100.00
56292;BME280;54008;53.606;9.462;2022-11-11T14:52:57;103184.63;;;10.78;100.00
56292;BME280;54008;53.606;9.462;2022-11-11T14:55:29;103185.47;;;10.78;100.00